sensor_id;sensor_type;location;lat;lon;timestamp;temperature;humidity
53282;DHT22;39167;52.794;6.892;2023-02-19T00:01:32;9.20;99.90
53282;DHT22;39167;52.794;6.892;2023-02-19T00:04:04;9.20;99.90
53282;DHT22;39167;52.794;6.892;2023-02-19T00:06:31;9.20;99.90
53282;DHT22;39167;52.794;6.892;2023-02-19T00:08:57;9.20;99.90
53282;DHT22;39167;52.794;6.892;2023-02-19T00:11:26;9.20;99.90
53282;DHT22;39167;52.794;6.892;2023-02-19T00:13:53;9.20;99.90
53282;DHT22;39167;52.794;6.892;2023-02-19T00:16:23;9.20;99.90
53282;DHT22;39167;52.794;6.892;2023-02-19T00:18:49;9.20;99.90
53282;DHT22;39167;52.794;6.892;2023-02-19T00:21:16;9.20;99.90
53282;DHT22;39167;52.794;6.892;2023-02-19T00:23:42;9.20;99.90
53282;DHT22;39167;52.794;6.892;2023-02-19T00:26:11;9.10;99.90
53282;DHT22;39167;52.794;6.892;2023-02-19T00:28:38;9.20;99.90
53282;DHT22;39167;52.794;6.892;2023-02-19T00:31:27;9.20;99.90
53282;DHT22;39167;52.794;6.892;2023-02-19T00:33:55;9.10;99.90
53282;DHT22;39167;52.794;6.892;2023-02-19T00:36:21;9.20;99.90
53282;DHT22;39167;52.794;6.892;2023-02-19T00:38:48;9.20;99.90
53282;DHT22;39167;52.794;6.892;2023-02-19T00:41:15;9.20;99.90
53282;DHT22;39167;52.794;6.892;2023-02-19T00:46:22;9.10;99.90
53282;DHT22;39167;52.794;6.892;2023-02-19T00:48:48;9.10;99.90
53282;DHT22;39167;52.794;6.892;2023-02-19T00:51:14;9.10;99.90
53282;DHT22;39167;52.794;6.892;2023-02-19T00:53:40;9.10;99.90
53282;DHT22;39167;52.794;6.892;2023-02-19T00:56:06;9.10;99.90
53282;DHT22;39167;52.794;6.892;2023-02-19T00:58:33;9.10;99.90
53282;DHT22;39167;52.794;6.892;2023-02-19T01:00:59;9.10;99.90
53282;DHT22;39167;52.794;6.892;2023-02-19T01:03:25;9.10;99.90
53282;DHT22;39167;52.794;6.892;2023-02-19T01:05:51;9.10;99.90
53282;DHT22;39167;52.794;6.892;2023-02-19T01:08:17;9.10;99.90
53282;DHT22;39167;52.794;6.892;2023-02-19T01:10:43;9.10;99.90
53282;DHT22;39167;52.794;6.892;2023-02-19T01:13:09;9.10;99.90
53282;DHT22;39167;52.794;6.892;2023-02-19T01:15:35;9.10;99.90
53282;DHT22;39167;52.794;6.892;2023-02-19T01:18:01;9.10;99.90
53282;DHT22;39167;52.794;6.892;2023-02-19T01:20:27;9.10;99.90
53282;DHT22;39167;52.794;6.892;2023-02-19T01:22:53;9.10;99.90
53282;DHT22;39167;52.794;6.892;2023-02-19T01:25:19;9.10;99.90
53282;DHT22;39167;52.794;6.892;2023-02-19T01:27:45;9.10;99.90
53282;DHT22;39167;52.794;6.892;2023-02-19T01:30:11;9.10;99.90
53282;DHT22;39167;52.794;6.892;2023-02-19T01:32:37;9.10;99.90
53282;DHT22;39167;52.794;6.892;2023-02-19T01:35:03;9.10;99.90
53282;DHT22;39167;52.794;6.892;2023-02-19T01:37:29;9.10;99.90
53282;DHT22;39167;52.794;6.892;2023-02-19T01:39:55;9.10;99.90
53282;DHT22;39167;52.794;6.892;2023-02-19T01:42:21;9.00;99.90
53282;DHT22;39167;52.794;6.892;2023-02-19T01:47:14;9.00;99.90
53282;DHT22;39167;52.794;6.892;2023-02-19T01:49:51;9.00;99.90
53282;DHT22;39167;52.794;6.892;2023-02-19T01:52:31;9.00;99.90
53282;DHT22;39167;52.794;6.892;2023-02-19T01:54:59;9.00;99.90
53282;DHT22;39167;52.794;6.892;2023-02-19T01:57:32;9.00;99.90
53282;DHT22;39167;52.794;6.892;2023-02-19T02:00:03;9.00;99.90
53282;DHT22;39167;52.794;6.892;2023-02-19T02:02:30;9.00;99.90
53282;DHT22;39167;52.794;6.892;2023-02-19T02:04:57;9.00;99.90
53282;DHT22;39167;52.794;6.892;2023-02-19T02:07:25;9.00;99.90
53282;DHT22;39167;52.794;6.892;2023-02-19T02:10:10;9.00;99.90
53282;DHT22;39167;52.794;6.892;2023-02-19T02:12:45;9.00;99.90
53282;DHT22;39167;52.794;6.892;2023-02-19T02:15:11;9.00;99.90
53282;DHT22;39167;52.794;6.892;2023-02-19T02:18:01;8.90;99.90
53282;DHT22;39167;52.794;6.892;2023-02-19T02:26:06;8.90;99.90
53282;DHT22;39167;52.794;6.892;2023-02-19T02:31:17;8.90;99.90
53282;DHT22;39167;52.794;6.892;2023-02-19T02:36:34;8.90;99.90
53282;DHT22;39167;52.794;6.892;2023-02-19T02:39:02;8.80;99.90
53282;DHT22;39167;52.794;6.892;2023-02-19T02:41:31;8.80;99.90
53282;DHT22;39167;52.794;6.892;2023-02-19T02:43:57;8.80;99.90
53282;DHT22;39167;52.794;6.892;2023-02-19T02:46:27;8.80;99.90
53282;DHT22;39167;52.794;6.892;2023-02-19T02:48:56;8.80;99.90
53282;DHT22;39167;52.794;6.892;2023-02-19T02:51:35;8.80;99.90
53282;DHT22;39167;52.794;6.892;2023-02-19T02:54:13;8.80;99.90
53282;DHT22;39167;52.794;6.892;2023-02-19T02:56:59;8.70;99.90
53282;DHT22;39167;52.794;6.892;2023-02-19T02:59:28;8.70;99.90
53282;DHT22;39167;52.794;6.892;2023-02-19T03:02:14;8.70;99.90
53282;DHT22;39167;52.794;6.892;2023-02-19T03:07:35;8.70;99.90
53282;DHT22;39167;52.794;6.892;2023-02-19T03:10:04;8.70;99.90
53282;DHT22;39167;52.794;6.892;2023-02-19T03:12:31;8.70;99.90
53282;DHT22;39167;52.794;6.892;2023-02-19T03:15:16;8.60;99.90
53282;DHT22;39167;52.794;6.892;2023-02-19T03:18:04;8.70;99.90
53282;DHT22;39167;52.794;6.892;2023-02-19T03:20:54;8.60;99.90
53282;DHT22;39167;52.794;6.892;2023-02-19T03:23:22;8.60;99.90
53282;DHT22;39167;52.794;6.892;2023-02-19T03:26:11;8.60;99.90
53282;DHT22;39167;52.794;6.892;2023-02-19T03:28:38;8.60;99.90
53282;DHT22;39167;52.794;6.892;2023-02-19T03:31:24;8.60;99.90
53282;DHT22;39167;52.794;6.892;2023-02-19T03:33:57;8.60;99.90
53282;DHT22;39167;52.794;6.892;2023-02-19T03:36:29;8.50;99.90
53282;DHT22;39167;52.794;6.892;2023-02-19T03:39:02;8.50;99.90
53282;DHT22;39167;52.794;6.892;2023-02-19T03:41:36;8.50;99.90
53282;DHT22;39167;52.794;6.892;2023-02-19T03:44:17;8.50;99.90
53282;DHT22;39167;52.794;6.892;2023-02-19T03:47:20;8.50;99.90
53282;DHT22;39167;52.794;6.892;2023-02-19T03:50:02;8.50;99.90
53282;DHT22;39167;52.794;6.892;2023-02-19T03:55:28;8.40;99.90
53282;DHT22;39167;52.794;6.892;2023-02-19T03:58:13;8.40;99.90
53282;DHT22;39167;52.794;6.892;2023-02-19T04:00:53;8.40;99.90
53282;DHT22;39167;52.794;6.892;2023-02-19T04:06:09;8.40;99.90
53282;DHT22;39167;52.794;6.892;2023-02-19T04:08:37;8.30;99.90
53282;DHT22;39167;52.794;6.892;2023-02-19T04:11:05;8.30;99.90
53282;DHT22;39167;52.794;6.892;2023-02-19T04:13:57;8.20;99.90
53282;DHT22;39167;52.794;6.892;2023-02-19T04:16:27;8.10;99.90
53282;DHT22;39167;52.794;6.892;2023-02-19T04:19:28;8.10;99.90
53282;DHT22;39167;52.794;6.892;2023-02-19T04:21:48;8.10;99.90
53282;DHT22;39167;52.794;6.892;2023-02-19T04:24:21;8.00;99.90
53282;DHT22;39167;52.794;6.892;2023-02-19T04:26:47;7.90;99.90
53282;DHT22;39167;52.794;6.892;2023-02-19T04:29:13;7.90;99.90
53282;DHT22;39167;52.794;6.892;2023-02-19T04:31:39;7.90;99.90
53282;DHT22;39167;52.794;6.892;2023-02-19T04:34:04;7.90;99.90
53282;DHT22;39167;52.794;6.892;2023-02-19T04:36:31;7.90;99.90
53282;DHT22;39167;52.794;6.892;2023-02-19T04:38:57;7.90;99.90
53282;DHT22;39167;52.794;6.892;2023-02-19T04:41:23;7.90;99.90
53282;DHT22;39167;52.794;6.892;2023-02-19T04:43:49;7.80;99.90
53282;DHT22;39167;52.794;6.892;2023-02-19T04:46:15;7.80;99.90
53282;DHT22;39167;52.794;6.892;2023-02-19T04:48:41;7.80;99.90
53282;DHT22;39167;52.794;6.892;2023-02-19T04:51:10;7.80;99.90
53282;DHT22;39167;52.794;6.892;2023-02-19T04:53:36;7.80;99.90
53282;DHT22;39167;52.794;6.892;2023-02-19T04:56:10;7.60;99.90
53282;DHT22;39167;52.794;6.892;2023-02-19T04:58:36;7.50;99.90
53282;DHT22;39167;52.794;6.892;2023-02-19T05:01:02;7.50;99.90
53282;DHT22;39167;52.794;6.892;2023-02-19T05:03:28;7.40;99.90
53282;DHT22;39167;52.794;6.892;2023-02-19T05:05:54;7.40;99.90
53282;DHT22;39167;52.794;6.892;2023-02-19T05:08:20;7.40;99.90
53282;DHT22;39167;52.794;6.892;2023-02-19T05:10:45;7.30;99.90
53282;DHT22;39167;52.794;6.892;2023-02-19T05:13:11;7.20;99.90
53282;DHT22;39167;52.794;6.892;2023-02-19T05:15:37;7.20;99.90
53282;DHT22;39167;52.794;6.892;2023-02-19T05:18:03;7.10;99.90
53282;DHT22;39167;52.794;6.892;2023-02-19T05:20:28;7.10;99.90
53282;DHT22;39167;52.794;6.892;2023-02-19T05:22:54;7.40;99.90
53282;DHT22;39167;52.794;6.892;2023-02-19T05:25:20;7.40;99.90
53282;DHT22;39167;52.794;6.892;2023-02-19T05:27:45;7.10;99.90
53282;DHT22;39167;52.794;6.892;2023-02-19T05:30:11;7.30;99.90
53282;DHT22;39167;52.794;6.892;2023-02-19T05:32:37;7.00;99.90
53282;DHT22;39167;52.794;6.892;2023-02-19T05:35:03;6.90;99.90
53282;DHT22;39167;52.794;6.892;2023-02-19T05:37:29;6.90;99.90
53282;DHT22;39167;52.794;6.892;2023-02-19T05:39:54;6.90;99.90
53282;DHT22;39167;52.794;6.892;2023-02-19T05:42:20;6.80;99.90
53282;DHT22;39167;52.794;6.892;2023-02-19T05:44:46;6.80;99.90
53282;DHT22;39167;52.794;6.892;2023-02-19T05:47:11;7.20;99.90
53282;DHT22;39167;52.794;6.892;2023-02-19T05:49:37;6.80;99.90
53282;DHT22;39167;52.794;6.892;2023-02-19T05:52:03;6.80;99.90
53282;DHT22;39167;52.794;6.892;2023-02-19T05:54:29;6.80;99.90
53282;DHT22;39167;52.794;6.892;2023-02-19T05:56:55;7.20;99.90
53282;DHT22;39167;52.794;6.892;2023-02-19T05:59:23;6.80;99.90
53282;DHT22;39167;52.794;6.892;2023-02-19T06:01:51;6.70;99.90
53282;DHT22;39167;52.794;6.892;2023-02-19T06:04:17;7.00;99.90
53282;DHT22;39167;52.794;6.892;2023-02-19T06:06:45;7.20;99.90
53282;DHT22;39167;52.794;6.892;2023-02-19T06:09:11;6.60;99.90
53282;DHT22;39167;52.794;6.892;2023-02-19T06:11:38;6.80;99.90
53282;DHT22;39167;52.794;6.892;2023-02-19T06:14:04;6.60;99.90
53282;DHT22;39167;52.794;6.892;2023-02-19T06:16:29;6.60;99.90
53282;DHT22;39167;52.794;6.892;2023-02-19T06:18:57;6.60;99.90
53282;DHT22;39167;52.794;6.892;2023-02-19T06:21:23;6.50;99.90
53282;DHT22;39167;52.794;6.892;2023-02-19T06:23:49;6.50;99.90
53282;DHT22;39167;52.794;6.892;2023-02-19T06:26:18;6.50;99.90
53282;DHT22;39167;52.794;6.892;2023-02-19T06:28:45;6.50;99.90
53282;DHT22;39167;52.794;6.892;2023-02-19T06:31:12;7.00;99.90
53282;DHT22;39167;52.794;6.892;2023-02-19T06:33:39;6.40;99.90
53282;DHT22;39167;52.794;6.892;2023-02-19T06:36:06;6.80;99.90
53282;DHT22;39167;52.794;6.892;2023-02-19T06:38:32;6.40;99.90
53282;DHT22;39167;52.794;6.892;2023-02-19T06:41:03;6.40;99.90
53282;DHT22;39167;52.794;6.892;2023-02-19T06:43:30;6.40;99.90
53282;DHT22;39167;52.794;6.892;2023-02-19T06:46:01;6.40;99.90
53282;DHT22;39167;52.794;6.892;2023-02-19T06:48:27;6.40;99.90
53282;DHT22;39167;52.794;6.892;2023-02-19T06:50:54;6.40;99.90
53282;DHT22;39167;52.794;6.892;2023-02-19T06:53:21;6.80;99.90
53282;DHT22;39167;52.794;6.892;2023-02-19T06:58:45;6.40;99.90
53282;DHT22;39167;52.794;6.892;2023-02-19T07:01:11;6.30;99.90
53282;DHT22;39167;52.794;6.892;2023-02-19T07:03:36;6.30;99.90
53282;DHT22;39167;52.794;6.892;2023-02-19T07:06:02;6.20;99.90
53282;DHT22;39167;52.794;6.892;2023-02-19T07:08:28;6.20;99.90
53282;DHT22;39167;52.794;6.892;2023-02-19T07:10:55;6.20;99.90
53282;DHT22;39167;52.794;6.892;2023-02-19T07:13:23;6.20;99.90
53282;DHT22;39167;52.794;6.892;2023-02-19T07:15:49;6.20;99.90
53282;DHT22;39167;52.794;6.892;2023-02-19T07:18:15;6.10;99.90
53282;DHT22;39167;52.794;6.892;2023-02-19T07:20:40;6.10;99.90
53282;DHT22;39167;52.794;6.892;2023-02-19T07:23:06;6.20;99.90
53282;DHT22;39167;52.794;6.892;2023-02-19T07:25:32;6.10;99.90
53282;DHT22;39167;52.794;6.892;2023-02-19T07:27:57;6.10;99.90
53282;DHT22;39167;52.794;6.892;2023-02-19T07:30:23;6.50;99.90
53282;DHT22;39167;52.794;6.892;2023-02-19T07:32:49;6.00;99.90
53282;DHT22;39167;52.794;6.892;2023-02-19T07:35:14;6.10;99.90
53282;DHT22;39167;52.794;6.892;2023-02-19T07:37:40;6.40;99.90
53282;DHT22;39167;52.794;6.892;2023-02-19T07:40:06;6.00;99.90
53282;DHT22;39167;52.794;6.892;2023-02-19T07:42:32;6.00;99.90
53282;DHT22;39167;52.794;6.892;2023-02-19T07:44:58;6.00;99.90
53282;DHT22;39167;52.794;6.892;2023-02-19T07:47:23;6.00;99.90
53282;DHT22;39167;52.794;6.892;2023-02-19T07:49:49;6.50;99.90
53282;DHT22;39167;52.794;6.892;2023-02-19T07:52:14;6.00;99.90
53282;DHT22;39167;52.794;6.892;2023-02-19T07:54:40;6.60;99.90
53282;DHT22;39167;52.794;6.892;2023-02-19T07:57:06;6.00;99.90
53282;DHT22;39167;52.794;6.892;2023-02-19T07:59:33;6.00;99.90
53282;DHT22;39167;52.794;6.892;2023-02-19T08:01:58;6.00;99.90
53282;DHT22;39167;52.794;6.892;2023-02-19T08:04:42;6.00;99.90
53282;DHT22;39167;52.794;6.892;2023-02-19T08:07:10;6.00;99.90
53282;DHT22;39167;52.794;6.892;2023-02-19T08:09:35;6.10;99.90
53282;DHT22;39167;52.794;6.892;2023-02-19T08:12:02;6.00;99.90
53282;DHT22;39167;52.794;6.892;2023-02-19T08:14:46;6.00;99.90
53282;DHT22;39167;52.794;6.892;2023-02-19T08:17:12;6.10;99.90
53282;DHT22;39167;52.794;6.892;2023-02-19T08:19:38;6.10;99.90
53282;DHT22;39167;52.794;6.892;2023-02-19T08:22:03;6.20;99.90
53282;DHT22;39167;52.794;6.892;2023-02-19T08:24:30;6.10;99.90
53282;DHT22;39167;52.794;6.892;2023-02-19T08:26:58;6.10;99.90
53282;DHT22;39167;52.794;6.892;2023-02-19T08:29:24;6.10;99.90
53282;DHT22;39167;52.794;6.892;2023-02-19T08:31:49;6.10;99.90
53282;DHT22;39167;52.794;6.892;2023-02-19T08:34:15;5.70;99.90
53282;DHT22;39167;52.794;6.892;2023-02-19T08:36:41;6.10;99.90
53282;DHT22;39167;52.794;6.892;2023-02-19T08:39:08;6.10;99.90
53282;DHT22;39167;52.794;6.892;2023-02-19T08:41:34;6.20;99.90
53282;DHT22;39167;52.794;6.892;2023-02-19T08:44:00;6.20;99.90
53282;DHT22;39167;52.794;6.892;2023-02-19T08:46:26;6.20;99.90
53282;DHT22;39167;52.794;6.892;2023-02-19T08:48:51;6.20;99.90
53282;DHT22;39167;52.794;6.892;2023-02-19T08:51:17;6.50;99.90
53282;DHT22;39167;52.794;6.892;2023-02-19T08:53:44;6.20;99.90
53282;DHT22;39167;52.794;6.892;2023-02-19T08:56:16;6.30;99.90
53282;DHT22;39167;52.794;6.892;2023-02-19T08:58:42;6.40;99.90
53282;DHT22;39167;52.794;6.892;2023-02-19T09:01:09;6.30;99.90
53282;DHT22;39167;52.794;6.892;2023-02-19T09:03:35;6.30;99.90
53282;DHT22;39167;52.794;6.892;2023-02-19T09:06:01;6.30;99.90
53282;DHT22;39167;52.794;6.892;2023-02-19T09:08:27;6.30;99.90
53282;DHT22;39167;52.794;6.892;2023-02-19T09:11:00;6.50;99.90
53282;DHT22;39167;52.794;6.892;2023-02-19T09:13:27;6.60;99.90
53282;DHT22;39167;52.794;6.892;2023-02-19T09:15:53;6.40;99.90
53282;DHT22;39167;52.794;6.892;2023-02-19T09:18:19;6.40;99.90
53282;DHT22;39167;52.794;6.892;2023-02-19T09:20:44;6.60;99.90
53282;DHT22;39167;52.794;6.892;2023-02-19T09:23:10;6.40;99.90
53282;DHT22;39167;52.794;6.892;2023-02-19T09:25:36;6.40;99.90
53282;DHT22;39167;52.794;6.892;2023-02-19T09:28:01;6.50;99.90
53282;DHT22;39167;52.794;6.892;2023-02-19T09:30:27;6.50;99.90
53282;DHT22;39167;52.794;6.892;2023-02-19T09:32:53;6.50;99.90
53282;DHT22;39167;52.794;6.892;2023-02-19T09:35:18;6.60;99.90
53282;DHT22;39167;52.794;6.892;2023-02-19T09:37:44;6.70;99.90
53282;DHT22;39167;52.794;6.892;2023-02-19T09:40:10;6.70;99.90
53282;DHT22;39167;52.794;6.892;2023-02-19T09:42:39;6.70;99.90
53282;DHT22;39167;52.794;6.892;2023-02-19T09:45:05;6.70;99.90
53282;DHT22;39167;52.794;6.892;2023-02-19T09:47:32;6.80;99.90
53282;DHT22;39167;52.794;6.892;2023-02-19T09:50:06;6.80;99.90
53282;DHT22;39167;52.794;6.892;2023-02-19T09:52:46;6.80;99.90
53282;DHT22;39167;52.794;6.892;2023-02-19T09:55:19;6.80;99.90
53282;DHT22;39167;52.794;6.892;2023-02-19T09:57:50;6.90;99.90
53282;DHT22;39167;52.794;6.892;2023-02-19T10:02:54;6.80;99.90
53282;DHT22;39167;52.794;6.892;2023-02-19T10:05:22;6.70;99.90
53282;DHT22;39167;52.794;6.892;2023-02-19T10:07:51;6.70;99.90
53282;DHT22;39167;52.794;6.892;2023-02-19T10:10:30;6.70;99.90
53282;DHT22;39167;52.794;6.892;2023-02-19T10:13:10;6.70;99.90
53282;DHT22;39167;52.794;6.892;2023-02-19T10:15:49;6.60;99.90
53282;DHT22;39167;52.794;6.892;2023-02-19T10:18:17;6.70;99.90
53282;DHT22;39167;52.794;6.892;2023-02-19T10:20:44;7.00;99.90
53282;DHT22;39167;52.794;6.892;2023-02-19T10:23:13;6.80;99.90
53282;DHT22;39167;52.794;6.892;2023-02-19T10:25:44;6.80;99.90
53282;DHT22;39167;52.794;6.892;2023-02-19T10:28:14;7.30;99.90
53282;DHT22;39167;52.794;6.892;2023-02-19T10:30:41;6.90;99.90
53282;DHT22;39167;52.794;6.892;2023-02-19T10:33:16;6.90;99.90
53282;DHT22;39167;52.794;6.892;2023-02-19T10:35:58;6.90;99.90
53282;DHT22;39167;52.794;6.892;2023-02-19T10:38:30;6.90;99.90
53282;DHT22;39167;52.794;6.892;2023-02-19T10:41:20;7.10;99.90
53282;DHT22;39167;52.794;6.892;2023-02-19T10:44:05;7.10;99.90
53282;DHT22;39167;52.794;6.892;2023-02-19T10:46:35;7.20;99.90
53282;DHT22;39167;52.794;6.892;2023-02-19T10:49:04;7.30;99.90
53282;DHT22;39167;52.794;6.892;2023-02-19T10:51:38;7.40;99.90
53282;DHT22;39167;52.794;6.892;2023-02-19T10:56:49;7.40;99.90
53282;DHT22;39167;52.794;6.892;2023-02-19T11:02:00;7.30;99.90
53282;DHT22;39167;52.794;6.892;2023-02-19T11:04:28;7.30;99.90
53282;DHT22;39167;52.794;6.892;2023-02-19T11:07:06;7.30;99.90
53282;DHT22;39167;52.794;6.892;2023-02-19T11:09:46;7.30;99.90
53282;DHT22;39167;52.794;6.892;2023-02-19T11:12:23;7.40;99.90
53282;DHT22;39167;52.794;6.892;2023-02-19T11:14:50;7.40;99.90
53282;DHT22;39167;52.794;6.892;2023-02-19T11:17:34;7.40;99.90
53282;DHT22;39167;52.794;6.892;2023-02-19T11:20:06;7.40;99.90
53282;DHT22;39167;52.794;6.892;2023-02-19T11:22:39;7.40;99.90
53282;DHT22;39167;52.794;6.892;2023-02-19T11:27:35;7.30;99.90
53282;DHT22;39167;52.794;6.892;2023-02-19T11:30:41;7.30;99.90
53282;DHT22;39167;52.794;6.892;2023-02-19T11:38:41;7.40;99.90
53282;DHT22;39167;52.794;6.892;2023-02-19T11:51:42;7.80;99.90
53282;DHT22;39167;52.794;6.892;2023-02-19T11:59:56;7.80;99.90
53282;DHT22;39167;52.794;6.892;2023-02-19T12:02:36;7.80;99.90
53282;DHT22;39167;52.794;6.892;2023-02-19T12:16:21;7.80;99.90
53282;DHT22;39167;52.794;6.892;2023-02-19T12:19:24;7.80;99.90
53282;DHT22;39167;52.794;6.892;2023-02-19T12:22:26;7.80;99.90
53282;DHT22;39167;52.794;6.892;2023-02-19T12:30:41;7.80;99.90
53282;DHT22;39167;52.794;6.892;2023-02-19T12:33:26;7.70;99.90
53282;DHT22;39167;52.794;6.892;2023-02-19T12:39:00;7.80;99.90
53282;DHT22;39167;52.794;6.892;2023-02-19T12:41:47;7.80;99.90
53282;DHT22;39167;52.794;6.892;2023-02-19T12:44:20;7.80;99.90
53282;DHT22;39167;52.794;6.892;2023-02-19T12:46:52;7.90;99.90
53282;DHT22;39167;52.794;6.892;2023-02-19T12:49:26;7.90;99.90
53282;DHT22;39167;52.794;6.892;2023-02-19T12:52:09;7.90;99.90
53282;DHT22;39167;52.794;6.892;2023-02-19T12:54:40;7.90;99.90
53282;DHT22;39167;52.794;6.892;2023-02-19T12:57:24;7.80;99.90
53282;DHT22;39167;52.794;6.892;2023-02-19T12:59:56;7.80;99.90
53282;DHT22;39167;52.794;6.892;2023-02-19T13:08:14;7.80;99.90
53282;DHT22;39167;52.794;6.892;2023-02-19T13:10:54;7.80;99.90
53282;DHT22;39167;52.794;6.892;2023-02-19T13:13:43;7.80;99.90
53282;DHT22;39167;52.794;6.892;2023-02-19T13:16:14;7.80;99.90
53282;DHT22;39167;52.794;6.892;2023-02-19T13:18:48;7.80;99.90
53282;DHT22;39167;52.794;6.892;2023-02-19T13:21:16;7.80;99.90
53282;DHT22;39167;52.794;6.892;2023-02-19T13:24:09;7.70;99.90
53282;DHT22;39167;52.794;6.892;2023-02-19T13:27:07;7.70;99.90
53282;DHT22;39167;52.794;6.892;2023-02-19T13:37:34;7.60;99.90
53282;DHT22;39167;52.794;6.892;2023-02-19T13:40:52;7.60;99.90
53282;DHT22;39167;52.794;6.892;2023-02-19T13:43:03;7.60;99.90
53282;DHT22;39167;52.794;6.892;2023-02-19T13:45:42;7.60;99.90
53282;DHT22;39167;52.794;6.892;2023-02-19T13:50:49;7.50;99.90
53282;DHT22;39167;52.794;6.892;2023-02-19T14:04:20;7.60;99.90
53282;DHT22;39167;52.794;6.892;2023-02-19T14:07:20;7.60;99.90
53282;DHT22;39167;52.794;6.892;2023-02-19T14:09:46;7.60;99.90
53282;DHT22;39167;52.794;6.892;2023-02-19T14:14:54;7.60;99.90
53282;DHT22;39167;52.794;6.892;2023-02-19T14:30:52;7.70;99.90
53282;DHT22;39167;52.794;6.892;2023-02-19T14:33:32;7.70;99.90
53282;DHT22;39167;52.794;6.892;2023-02-19T14:38:57;7.70;99.90
53282;DHT22;39167;52.794;6.892;2023-02-19T14:41:23;7.70;99.90
53282;DHT22;39167;52.794;6.892;2023-02-19T14:43:52;7.70;99.90
53282;DHT22;39167;52.794;6.892;2023-02-19T14:46:29;7.70;99.90
53282;DHT22;39167;52.794;6.892;2023-02-19T14:49:02;7.70;99.90
53282;DHT22;39167;52.794;6.892;2023-02-19T14:51:34;7.70;99.90
53282;DHT22;39167;52.794;6.892;2023-02-19T14:54:02;7.70;99.90
53282;DHT22;39167;52.794;6.892;2023-02-19T14:56:32;7.70;99.90
53282;DHT22;39167;52.794;6.892;2023-02-19T14:59:26;7.70;99.90
53282;DHT22;39167;52.794;6.892;2023-02-19T15:01:57;7.70;99.90
53282;DHT22;39167;52.794;6.892;2023-02-19T15:04:29;7.70;99.90
53282;DHT22;39167;52.794;6.892;2023-02-19T15:07:02;7.70;99.90
53282;DHT22;39167;52.794;6.892;2023-02-19T15:09:43;7.70;99.90
53282;DHT22;39167;52.794;6.892;2023-02-19T15:12:22;7.70;99.90
53282;DHT22;39167;52.794;6.892;2023-02-19T15:14:50;7.80;99.90
53282;DHT22;39167;52.794;6.892;2023-02-19T15:17:26;7.80;99.90
53282;DHT22;39167;52.794;6.892;2023-02-19T15:19:53;7.80;99.90
53282;DHT22;39167;52.794;6.892;2023-02-19T15:22:23;7.80;99.90
53282;DHT22;39167;52.794;6.892;2023-02-19T15:24:49;7.90;99.90
53282;DHT22;39167;52.794;6.892;2023-02-19T15:27:20;7.90;99.90
53282;DHT22;39167;52.794;6.892;2023-02-19T15:29:48;7.90;99.90
53282;DHT22;39167;52.794;6.892;2023-02-19T15:32:23;7.80;99.90
53282;DHT22;39167;52.794;6.892;2023-02-19T15:34:59;7.80;99.90
53282;DHT22;39167;52.794;6.892;2023-02-19T15:37:27;7.80;99.90
53282;DHT22;39167;52.794;6.892;2023-02-19T15:39:54;7.80;99.90
53282;DHT22;39167;52.794;6.892;2023-02-19T15:42:24;7.70;99.90
53282;DHT22;39167;52.794;6.892;2023-02-19T15:44:52;7.70;99.90
53282;DHT22;39167;52.794;6.892;2023-02-19T15:47:28;7.80;99.90
53282;DHT22;39167;52.794;6.892;2023-02-19T15:55:39;7.70;99.90
53282;DHT22;39167;52.794;6.892;2023-02-19T16:03:22;7.70;99.90
53282;DHT22;39167;52.794;6.892;2023-02-19T16:06:10;7.60;99.90
53282;DHT22;39167;52.794;6.892;2023-02-19T16:08:41;7.60;99.90
53282;DHT22;39167;52.794;6.892;2023-02-19T16:14:17;7.50;99.90
53282;DHT22;39167;52.794;6.892;2023-02-19T16:16:44;7.50;99.90
53282;DHT22;39167;52.794;6.892;2023-02-19T16:19:10;7.50;99.90
53282;DHT22;39167;52.794;6.892;2023-02-19T16:21:36;7.50;99.90
53282;DHT22;39167;52.794;6.892;2023-02-19T16:26:41;7.50;99.90
53282;DHT22;39167;52.794;6.892;2023-02-19T16:29:22;7.40;99.90
53282;DHT22;39167;52.794;6.892;2023-02-19T16:32:03;7.40;99.90
53282;DHT22;39167;52.794;6.892;2023-02-19T16:34:39;7.40;99.90
53282;DHT22;39167;52.794;6.892;2023-02-19T16:37:37;7.30;99.90
53282;DHT22;39167;52.794;6.892;2023-02-19T16:42:33;7.30;99.90
53282;DHT22;39167;52.794;6.892;2023-02-19T16:44:59;7.30;99.90
53282;DHT22;39167;52.794;6.892;2023-02-19T16:47:31;7.20;99.90
53282;DHT22;39167;52.794;6.892;2023-02-19T16:50:01;7.30;99.90
53282;DHT22;39167;52.794;6.892;2023-02-19T16:52:27;7.20;99.90
53282;DHT22;39167;52.794;6.892;2023-02-19T16:54:53;7.20;99.90
53282;DHT22;39167;52.794;6.892;2023-02-19T16:57:19;7.20;99.90
53282;DHT22;39167;52.794;6.892;2023-02-19T16:59:46;7.10;99.90
53282;DHT22;39167;52.794;6.892;2023-02-19T17:02:17;7.20;99.90
53282;DHT22;39167;52.794;6.892;2023-02-19T17:04:45;7.10;99.90
53282;DHT22;39167;52.794;6.892;2023-02-19T17:07:13;7.30;99.90
53282;DHT22;39167;52.794;6.892;2023-02-19T17:09:40;7.10;99.90
53282;DHT22;39167;52.794;6.892;2023-02-19T17:12:13;7.20;99.90
53282;DHT22;39167;52.794;6.892;2023-02-19T17:14:40;7.20;99.90
53282;DHT22;39167;52.794;6.892;2023-02-19T17:17:06;7.10;99.90
53282;DHT22;39167;52.794;6.892;2023-02-19T17:19:31;7.10;99.90
53282;DHT22;39167;52.794;6.892;2023-02-19T17:21:57;7.10;99.90
53282;DHT22;39167;52.794;6.892;2023-02-19T17:24:23;7.10;99.90
53282;DHT22;39167;52.794;6.892;2023-02-19T17:26:49;7.00;99.90
53282;DHT22;39167;52.794;6.892;2023-02-19T17:29:15;7.10;99.90
53282;DHT22;39167;52.794;6.892;2023-02-19T17:31:43;7.10;99.90
53282;DHT22;39167;52.794;6.892;2023-02-19T17:34:09;7.10;99.90
53282;DHT22;39167;52.794;6.892;2023-02-19T17:36:35;7.10;99.90
53282;DHT22;39167;52.794;6.892;2023-02-19T17:39:04;7.00;99.90
53282;DHT22;39167;52.794;6.892;2023-02-19T17:41:31;7.00;99.90
53282;DHT22;39167;52.794;6.892;2023-02-19T17:43:57;7.00;99.90
53282;DHT22;39167;52.794;6.892;2023-02-19T17:46:25;7.00;99.90
53282;DHT22;39167;52.794;6.892;2023-02-19T17:48:52;7.00;99.90
53282;DHT22;39167;52.794;6.892;2023-02-19T17:51:18;6.90;99.90
53282;DHT22;39167;52.794;6.892;2023-02-19T17:53:43;6.90;99.90
53282;DHT22;39167;52.794;6.892;2023-02-19T17:56:18;6.90;99.90
53282;DHT22;39167;52.794;6.892;2023-02-19T17:58:44;6.90;99.90
53282;DHT22;39167;52.794;6.892;2023-02-19T18:01:10;6.90;99.90
53282;DHT22;39167;52.794;6.892;2023-02-19T18:03:36;6.90;99.90
53282;DHT22;39167;52.794;6.892;2023-02-19T18:06:01;6.90;99.90
53282;DHT22;39167;52.794;6.892;2023-02-19T18:08:27;6.80;99.90
53282;DHT22;39167;52.794;6.892;2023-02-19T18:10:53;7.40;99.90
53282;DHT22;39167;52.794;6.892;2023-02-19T18:13:18;7.10;99.90
53282;DHT22;39167;52.794;6.892;2023-02-19T18:15:44;7.00;99.90
53282;DHT22;39167;52.794;6.892;2023-02-19T18:18:10;6.80;99.90
53282;DHT22;39167;52.794;6.892;2023-02-19T18:20:35;6.80;99.90
53282;DHT22;39167;52.794;6.892;2023-02-19T18:23:01;6.80;99.90
53282;DHT22;39167;52.794;6.892;2023-02-19T18:25:27;6.70;99.90
53282;DHT22;39167;52.794;6.892;2023-02-19T18:27:53;6.90;99.90
53282;DHT22;39167;52.794;6.892;2023-02-19T18:30:20;6.70;99.90